Time;durP1;ratioP1;P1;durP2;ratioP2;P2;SDS_P1;SDS_P2;PMS_P1;PMS_P2;Temp;Humidity;BMP_temperature;BMP_pressure;BME280_temperature;BME280_humidity;BME280_pressure;Samples;Min_cycle;Max_cycle;Signal;HPM_P1;HPM_P2
2023/03/29 00:00:15;;;;;;;16.85;9.18;;;;;;;;;;2067598;28;20030;-69
2023/03/29 00:01:40;;;;;;;16.77;9.55;;;;;;;;;;2073976;28;21738;-69
2023/03/29 00:03:02;;;;;;;15.75;9.85;;;;;;;;;;2081719;28;20060;-69
2023/03/29 00:04:26;;;;;;;20.20;10.60;;;;;;;;;;2077164;28;20041;-72
2023/03/29 00:05:47;;;;;;;26.08;10.82;;;;;;;;;;2072771;28;21417;-69
2023/03/29 00:07:08;;;;;;;14.40;8.70;;;;;;;;;;2075895;28;20049;-69
2023/03/29 00:08:30;;;;;;;12.10;8.57;;;;;;;;;;2069738;28;20523;-69
2023/03/29 00:09:51;;;;;;;13.70;9.27;;;;;;;;;;2076157;28;20034;-69
2023/03/29 00:11:12;;;;;;;20.05;10.15;;;;;;;;;;2076457;28;20041;-69
2023/03/29 00:12:33;;;;;;;18.70;9.23;;;;;;;;;;2074855;28;20422;-69
2023/03/29 00:13:54;;;;;;;14.77;8.65;;;;;;;;;;2087995;28;20540;-69
2023/03/29 00:15:15;;;;;;;17.27;9.73;;;;;;;;;;2077030;28;21465;-69
2023/03/29 00:16:36;;;;;;;16.55;9.52;;;;;;;;;;2074760;28;20030;-69
2023/03/29 00:17:57;;;;;;;15.15;9.50;;;;;;;;;;2074972;28;20528;-69
2023/03/29 00:19:18;;;;;;;11.68;8.02;;;;;;;;;;2077316;28;20021;-69
2023/03/29 00:20:39;;;;;;;23.73;11.10;;;;;;;;;;2074579;28;20029;-70
2023/03/29 00:22:00;;;;;;;16.45;9.85;;;;;;;;;;2075680;28;20063;-69
2023/03/29 00:23:22;;;;;;;16.13;9.30;;;;;;;;;;2077693;28;20435;-69
2023/03/29 00:24:42;;;;;;;14.27;8.75;;;;;;;;;;2077290;28;20515;-69
2023/03/29 00:26:04;;;;;;;14.75;8.55;;;;;;;;;;2079191;28;20147;-69
2023/03/29 00:27:25;;;;;;;12.80;8.75;;;;;;;;;;2071066;28;20677;-69
2023/03/29 00:28:46;;;;;;;14.98;9.65;;;;;;;;;;2076730;28;20040;-69
2023/03/29 00:30:07;;;;;;;11.88;8.85;;;;;;;;;;2063889;28;20042;-70
2023/03/29 00:31:28;;;;;;;14.27;8.43;;;;;;;;;;2068073;28;20464;-69
2023/03/29 00:32:50;;;;;;;14.82;8.85;;;;;;;;;;2069061;28;20042;-69
2023/03/29 00:34:10;;;;;;;12.05;8.65;;;;;;;;;;2073060;28;20473;-69
2023/03/29 00:35:32;;;;;;;15.85;9.90;;;;;;;;;;2081744;28;20046;-69
2023/03/29 00:36:56;;;;;;;17.92;9.10;;;;;;;;;;2075147;28;20037;-69
2023/03/29 00:38:17;;;;;;;13.88;8.52;;;;;;;;;;2080651;28;20167;-69
2023/03/29 00:39:40;;;;;;;17.95;8.57;;;;;;;;;;2074315;28;20026;-69
2023/03/29 00:41:02;;;;;;;13.10;8.52;;;;;;;;;;2081824;28;20037;-69
2023/03/29 00:42:24;;;;;;;17.17;8.90;;;;;;;;;;2072235;28;20034;-69
2023/03/29 00:43:50;;;;;;;16.02;9.45;;;;;;;;;;2070131;28;20030;-69
2023/03/29 00:45:11;;;;;;;14.07;9.40;;;;;;;;;;2071239;28;20037;-69
2023/03/29 00:46:33;;;;;;;9.88;8.15;;;;;;;;;;2077978;28;20041;-69
2023/03/29 00:48:01;;;;;;;18.13;9.45;;;;;;;;;;2080673;28;20041;-69
2023/03/29 00:49:21;;;;;;;17.10;8.70;;;;;;;;;;2081829;28;21598;-69
2023/03/29 00:50:42;;;;;;;17.35;9.73;;;;;;;;;;2064988;28;20042;-70
2023/03/29 00:52:04;;;;;;;12.80;8.60;;;;;;;;;;2069179;28;20067;-69
2023/03/29 00:53:36;;;;;;;16.75;9.80;;;;;;;;;;2082487;28;20115;-69
2023/03/29 00:55:00;;;;;;;17.75;8.93;;;;;;;;;;2077291;28;20091;-69
2023/03/29 00:56:28;;;;;;;14.27;9.20;;;;;;;;;;2077928;28;20030;-70
2023/03/29 00:57:51;;;;;;;14.55;8.80;;;;;;;;;;2067212;28;20172;-69
2023/03/29 00:59:14;;;;;;;21.63;10.35;;;;;;;;;;2066384;28;20034;-70
2023/03/29 01:00:47;;;;;;;13.55;8.93;;;;;;;;;;2063245;28;20034;-69
2023/03/29 01:02:07;;;;;;;;;;;;;;;;;;2075252;28;20523;-69
2023/03/29 01:06:57;;;;;;;;;;;;;;;;;;;;;
2023/03/29 01:08:36;;;;;;;21.60;8.88;;;;;;;;;;2053326;28;20042;-70
2023/03/29 01:10:35;;;;;;;22.60;9.70;;;;;;;;;;2044259;28;20102;-70
2023/03/29 01:14:34;;;;;;;25.25;10.25;;;;;;;;;;1993250;29;20018;-70
2023/03/29 01:21:04;;;;;;;22.45;10.55;;;;;;;;;;1999478;29;20091;-70
2023/03/29 01:31:07;;;;;;;;;;;;;;;;;;;;;
2023/03/29 01:35:13;;;;;;;;;;;;;;;;;;;;;
2023/03/29 01:52:34;;;;;;;;;;;;;;;;;;;;;
2023/03/29 02:00:59;;;;;;;18.02;9.35;;;;;;;;;;1931778;30;20097;-71
2023/03/29 02:02:46;;;;;;;;;;;;;;;;;;;;;
2023/03/29 02:14:49;;;;;;;19.38;8.30;;;;;;;;;;1963960;30;20124;-71
2023/03/29 02:16:38;;;;;;;55.92;15.30;;;;;;;;;;1967063;29;20184;-69
2023/03/29 02:18:28;;;;;;;11.18;7.05;;;;;;;;;;1982601;29;20035;-70
2023/03/29 02:20:41;;;;;;;33.40;11.40;;;;;;;;;;1990714;29;20152;-71
2023/03/29 02:24:36;;;;;;;;;;;;;;;;;;;;;
2023/03/29 02:26:34;;;;;;;21.30;9.23;;;;;;;;;;1992917;29;20029;-70
2023/03/29 02:30:09;;;;;;;13.98;10.95;;;;;;;;;;2013943;29;20037;-77
2023/03/29 02:32:18;;;;;;;14.93;8.18;;;;;;;;;;2018164;29;20035;-76
2023/03/29 02:36:19;;;;;;;15.73;8.50;;;;;;;;;;2068083;28;20404;-76
2023/03/29 02:37:46;;;;;;;19.58;9.15;;;;;;;;;;2058474;28;20046;-75
2023/03/29 02:39:15;;;;;;;19.40;8.82;;;;;;;;;;2060271;28;20030;-75
2023/03/29 02:40:43;;;;;;;20.23;9.80;;;;;;;;;;2060185;28;20030;-76
2023/03/29 02:42:20;;;;;;;;;;;;;;;;;;;;;
2023/03/29 02:43:57;;;;;;;22.27;10.35;;;;;;;;;;2058286;28;20034;-75
2023/03/29 02:45:26;;;;;;;23.25;9.90;;;;;;;;;;2062671;28;20042;-75
2023/03/29 02:47:13;;;;;;;26.50;11.20;;;;;;;;;;2044288;28;20023;-75
2023/03/29 02:48:45;;;;;;;23.33;10.48;;;;;;;;;;2054607;28;20023;-75
2023/03/29 02:50:09;;;;;;;18.70;9.57;;;;;;;;;;2060340;28;20046;-76
2023/03/29 02:51:32;;;;;;;16.20;9.50;;;;;;;;;;2051788;28;20600;-75
2023/03/29 02:53:10;;;;;;;18.35;8.38;;;;;;;;;;2062872;28;20053;-76
2023/03/29 02:56:27;;;;;;;23.50;10.15;;;;;;;;;;2062380;28;20039;-76
2023/03/29 02:58:02;;;;;;;18.70;9.82;;;;;;;;;;2057074;28;20105;-76
2023/03/29 02:59:35;;;;;;;15.45;8.35;;;;;;;;;;2062592;28;20039;-76
2023/03/29 03:01:05;;;;;;;19.55;9.75;;;;;;;;;;2055302;28;20042;-71
2023/03/29 03:02:51;;;;;;;15.02;8.20;;;;;;;;;;2062529;28;20101;-75
2023/03/29 03:04:17;;;;;;;22.30;9.38;;;;;;;;;;2062556;28;20042;-75
2023/03/29 03:05:43;;;;;;;17.70;9.27;;;;;;;;;;2059239;28;20077;-75
2023/03/29 03:07:09;;;;;;;28.58;14.68;;;;;;;;;;2047515;28;20041;-74
2023/03/29 03:08:33;;;;;;;21.45;9.93;;;;;;;;;;2051623;28;20039;-75
2023/03/29 03:10:25;;;;;;;;;;;;;;;;;;;;;
2023/03/29 03:12:10;;;;;;;10.27;7.63;;;;;;;;;;2068255;28;20042;-78
2023/03/29 03:13:40;;;;;;;8.65;7.75;;;;;;;;;;2056702;28;20031;-76
2023/03/29 03:15:20;;;;;;;11.63;7.85;;;;;;;;;;2057527;28;20043;-76
2023/03/29 03:16:59;;;;;;;14.75;8.40;;;;;;;;;;2060819;28;20038;-76
2023/03/29 03:18:55;;;;;;;13.15;8.15;;;;;;;;;;2057735;28;20093;-76
2023/03/29 03:20:28;;;;;;;25.65;9.93;;;;;;;;;;2054546;28;20532;-76
2023/03/29 03:22:06;;;;;;;26.90;10.68;;;;;;;;;;2062206;28;20393;-76
2023/03/29 03:23:30;;;;;;;17.40;9.32;;;;;;;;;;2062644;28;20030;-74
2023/03/29 03:25:00;;;;;;;16.58;8.35;;;;;;;;;;2053629;28;20039;-75
2023/03/29 03:30:30;;;;;;;22.75;9.63;;;;;;;;;;2058417;28;20707;-74
2023/03/29 03:32:16;;;;;;;21.38;9.20;;;;;;;;;;2050556;28;20456;-74
2023/03/29 03:33:48;;;;;;;11.82;7.65;;;;;;;;;;2054828;28;20031;-75
2023/03/29 03:35:48;;;;;;;15.30;8.13;;;;;;;;;;2052964;28;20042;-75
2023/03/29 03:37:35;;;;;;;11.75;8.15;;;;;;;;;;2039308;29;20438;-75
2023/03/29 03:39:14;;;;;;;;;;;;;;;;;;;;;
2023/03/29 03:41:11;;;;;;;16.63;9.18;;;;;;;;;;2062017;28;20027;-75
2023/03/29 03:42:57;;;;;;;16.02;9.13;;;;;;;;;;2053540;28;20152;-75
2023/03/29 03:44:28;;;;;;;27.17;10.18;;;;;;;;;;2052124;28;20031;-75
2023/03/29 03:46:24;;;;;;;;;;;;;;;;;;;;;
2023/03/29 03:47:58;;;;;;;64.18;17.35;;;;;;;;;;2061933;28;20559;-74
2023/03/29 03:49:40;;;;;;;14.10;7.68;;;;;;;;;;2054821;28;20110;-75
2023/03/29 03:51:10;;;;;;;24.85;9.23;;;;;;;;;;2051827;28;20371;-74
2023/03/29 03:53:06;;;;;;;27.30;10.45;;;;;;;;;;2055446;28;20089;-74
2023/03/29 03:55:20;;;;;;;;;;;;;;;;;;;;;
2023/03/29 03:56:53;;;;;;;19.40;9.13;;;;;;;;;;2063072;28;20034;-75
2023/03/29 03:58:45;;;;;;;;;;;;;;;;;;;;;
2023/03/29 04:07:38;;;;;;;27.33;10.05;;;;;;;;;;2019270;29;20508;-75
2023/03/29 04:11:24;;;;;;;27.48;11.45;;;;;;;;;;2037824;29;20067;-75
2023/03/29 04:15:24;;;;;;;;;;;;;;;;;;;;;
2023/03/29 04:16:56;;;;;;;18.25;9.02;;;;;;;;;;2017917;29;20800;-74
2023/03/29 04:18:59;;;;;;;;;;;;;;;;;;;;;
2023/03/29 04:20:35;;;;;;;23.67;10.07;;;;;;;;;;2029173;29;20044;-75
2023/03/29 04:22:17;;;;;;;28.00;10.95;;;;;;;;;;2030412;29;20059;-75
2023/03/29 04:27:33;;;;;;;17.73;9.50;;;;;;;;;;2064510;28;20042;-75
2023/03/29 04:28:59;;;;;;;9.30;6.32;;;;;;;;;;2051980;28;20067;-75
2023/03/29 04:30:28;;;;;;;20.23;8.25;;;;;;;;;;2053535;28;20043;-76
2023/03/29 04:31:59;;;;;;;15.02;7.57;;;;;;;;;;2064083;28;20057;-75
2023/03/29 04:35:33;;;;;;;19.02;8.07;;;;;;;;;;2067056;28;20030;-76
2023/03/29 04:37:26;;;;;;;12.77;7.65;;;;;;;;;;2057756;28;20418;-77
2023/03/29 04:39:17;;;;;;;13.45;7.78;;;;;;;;;;2055401;28;20042;-78
2023/03/29 04:41:41;;;;;;;25.65;9.70;;;;;;;;;;2051850;28;20720;-71
2023/03/29 04:43:00;;;;;;;;;;;;;;;;;;;;;
2023/03/29 04:44:42;;;;;;;;;;;;;;;;;;;;;
2023/03/29 04:46:46;;;;;;;;;;;;;;;;;;;;;
2023/03/29 04:48:19;;;;;;;8.20;7.03;;;;;;;;;;2050620;28;20068;-76
2023/03/29 04:49:49;;;;;;;18.33;8.80;;;;;;;;;;2055728;28;20031;-77
2023/03/29 04:51:36;;;;;;;17.83;9.02;;;;;;;;;;2055036;28;20026;-76
2023/03/29 04:53:02;;;;;;;18.23;8.52;;;;;;;;;;2063942;28;20049;-76
2023/03/29 04:54:29;;;;;;;22.88;9.80;;;;;;;;;;2057187;28;20031;-76
2023/03/29 04:55:58;;;;;;;23.08;9.35;;;;;;;;;;2053574;28;20058;-76
2023/03/29 04:58:07;;;;;;;10.48;7.35;;;;;;;;;;2055782;28;20109;-70
2023/03/29 04:59:57;;;;;;;19.92;8.82;;;;;;;;;;2024161;29;20044;-70
2023/03/29 05:03:10;;;;;;;;;;;;;;;;;;;;;
2023/03/29 05:06:36;;;;;;;19.63;8.63;;;;;;;;;;2059105;28;20042;-69
2023/03/29 05:08:10;;;;;;;;;;;;;;;;;;;;;
2023/03/29 05:09:43;;;;;;;18.52;9.38;;;;;;;;;;2035936;28;20101;-69
2023/03/29 05:11:26;;;;;;;17.80;8.32;;;;;;;;;;2051705;28;20031;-71
2023/03/29 05:14:58;;;;;;;19.08;9.40;;;;;;;;;;2047064;29;19918;-69
2023/03/29 05:16:25;;;;;;;12.25;8.30;;;;;;;;;;2050535;28;20023;-75
2023/03/29 05:18:01;;;;;;;15.90;8.55;;;;;;;;;;2047913;28;20039;-70
2023/03/29 05:19:54;;;;;;;15.40;8.07;;;;;;;;;;2037331;28;20032;-70
2023/03/29 05:21:22;;;;;;;;;;;;;;;;;;2056051;28;20490;-69
2023/03/29 05:25:19;;;;;;;20.33;8.93;;;;;;;;;;2045651;28;20435;-70
2023/03/29 05:27:09;;;;;;;24.55;10.75;;;;;;;;;;2045477;28;20039;-71
2023/03/29 05:28:44;;;;;;;;;;;;;;;;;;;;;
2023/03/29 05:30:23;;;;;;;17.67;8.23;;;;;;;;;;2044645;28;20047;-69
2023/03/29 05:32:20;;;;;;;;;;;;;;;;;;;;;
2023/03/29 05:40:18;;;;;;;12.55;7.40;;;;;;;;;;2029946;29;20523;-69
2023/03/29 05:42:22;;;;;;;;;;;;;;;;;;;;;
2023/03/29 05:44:40;;;;;;;;;;;;;;;;;;;;;
2023/03/29 05:47:11;;;;;;;17.50;8.50;;;;;;;;;;2045692;28;20088;-70
2023/03/29 05:55:06;;;;;;;;;;;;;;;;;;;;;
2023/03/29 06:12:24;;;;;;;;;;;;;;;;;;;;;
2023/03/29 06:18:49;;;;;;;22.05;9.07;;;;;;;;;;1999743;29;20038;-71
2023/03/29 06:22:51;;;;;;;;;;;;;;;;;;;;;
2023/03/29 06:32:49;;;;;;;12.75;8.30;;;;;;;;;;1980282;29;20039;-76
2023/03/29 06:34:35;;;;;;;15.93;8.88;;;;;;;;;;1995993;29;20530;-76
2023/03/29 06:36:24;;;;;;;14.63;7.57;;;;;;;;;;2011619;29;20045;-76
2023/03/29 06:38:35;;;;;;;;;;;;;;;;;;;;;
2023/03/29 06:41:51;;;;;;;12.95;8.30;;;;;;;;;;2046371;29;20383;-76
2023/03/29 06:43:24;;;;;;;13.68;8.68;;;;;;;;;;2049697;29;20062;-76
2023/03/29 06:45:20;;;;;;;19.08;9.25;;;;;;;;;;2048263;28;20042;-76
2023/03/29 06:47:00;;;;;;;14.98;8.32;;;;;;;;;;2054018;28;20134;-75
2023/03/29 06:48:37;;;;;;;14.52;8.32;;;;;;;;;;2050622;28;20035;-76
2023/03/29 06:50:06;;;;;;;14.68;8.55;;;;;;;;;;2048925;28;20031;-77
2023/03/29 06:51:31;;;;;;;15.27;8.30;;;;;;;;;;2038394;29;20410;-75
2023/03/29 06:53:12;;;;;;;12.13;7.57;;;;;;;;;;2043515;29;20491;-79
2023/03/29 06:58:45;;;;;;;9.60;7.53;;;;;;;;;;2049865;28;20040;-76
2023/03/29 07:00:18;;;;;;;13.02;8.38;;;;;;;;;;2064264;28;20019;-70
2023/03/29 07:06:30;;;;;;;15.52;7.75;;;;;;;;;;2052003;28;20090;-76
2023/03/29 07:10:24;;;;;;;11.45;7.75;;;;;;;;;;2031187;29;20059;-77
2023/03/29 07:14:08;;;;;;;15.60;8.77;;;;;;;;;;2017588;29;20049;-76
2023/03/29 07:17:47;;;;;;;12.20;7.63;;;;;;;;;;2008760;29;20382;-76
2023/03/29 07:24:05;;;;;;;;;;;;;;;;;;;;;
2023/03/29 07:26:06;;;;;;;18.48;8.73;;;;;;;;;;2000516;29;20435;-75
2023/03/29 07:28:32;;;;;;;13.43;7.78;;;;;;;;;;1996176;29;20110;-76
2023/03/29 07:30:09;;;;;;;12.32;7.75;;;;;;;;;;2018234;29;20033;-75
2023/03/29 07:31:40;;;;;;;56.40;16.55;;;;;;;;;;2008601;29;20030;-75
2023/03/29 07:33:28;;;;;;;13.90;7.82;;;;;;;;;;2018116;29;20033;-76
2023/03/29 07:35:26;;;;;;;15.95;9.02;;;;;;;;;;2007074;29;20037;-76
2023/03/29 07:37:05;;;;;;;13.80;8.13;;;;;;;;;;2021075;29;20044;-75
2023/03/29 07:41:03;;;;;;;9.95;7.65;;;;;;;;;;2039370;29;20031;-76
2023/03/29 07:42:47;;;;;;;20.25;8.68;;;;;;;;;;2035906;28;20122;-77
2023/03/29 07:44:25;;;;;;;13.13;8.27;;;;;;;;;;2039558;29;20502;-76
2023/03/29 07:46:17;;;;;;;17.65;9.27;;;;;;;;;;2049747;28;20047;-76
2023/03/29 07:48:23;;;;;;;20.40;9.63;;;;;;;;;;2039671;29;20091;-75
2023/03/29 07:50:56;;;;;;;19.75;8.68;;;;;;;;;;2048425;28;20039;-76
2023/03/29 07:52:28;;;;;;;102.85;25.70;;;;;;;;;;2046005;28;20058;-76
2023/03/29 07:54:23;;;;;;;17.73;8.43;;;;;;;;;;2052829;28;20038;-76
2023/03/29 07:57:47;;;;;;;13.00;8.52;;;;;;;;;;2056355;28;20031;-75
2023/03/29 08:03:29;;;;;;;;;;;;;;;;;;;;;
2023/03/29 08:04:57;;;;;;;27.13;10.85;;;;;;;;;;2032417;29;20032;-75
2023/03/29 08:33:58;;;;;;;20.48;10.57;;;;;;;;;;2020144;29;20105;-76
2023/03/29 08:35:37;;;;;;;12.38;9.27;;;;;;;;;;2021623;29;20092;-75
2023/03/29 08:36:58;;;;;;;24.73;10.80;;;;;;;;;;2029633;29;20040;-75
2023/03/29 08:38:21;;;;;;;27.77;11.48;;;;;;;;;;2040373;28;20027;-75
2023/03/29 08:39:43;;;;;;;18.17;9.77;;;;;;;;;;2052507;28;20513;-76
2023/03/29 08:41:10;;;;;;;;;;;;;;;;;;2049406;28;20086;-76
2023/03/29 08:42:43;;;;;;;17.50;9.13;;;;;;;;;;2049949;29;20349;-75
2023/03/29 08:44:23;;;;;;;25.33;10.38;;;;;;;;;;2064096;28;21488;-73
2023/03/29 08:45:45;;;;;;;12.73;8.13;;;;;;;;;;2057077;28;20027;-70
2023/03/29 08:47:16;;;;;;;15.70;9.18;;;;;;;;;;2065028;28;20038;-71
2023/03/29 08:48:41;;;;;;;17.40;8.73;;;;;;;;;;2052435;28;20102;-70
2023/03/29 08:50:02;;;;;;;15.10;10.05;;;;;;;;;;2049953;28;20027;-73
2023/03/29 08:51:28;;;;;;;15.07;8.45;;;;;;;;;;2055700;28;20038;-73
2023/03/29 08:52:51;;;;;;;15.20;8.77;;;;;;;;;;2039577;28;20032;-72
2023/03/29 08:54:15;;;;;;;15.70;8.27;;;;;;;;;;2047728;29;20129;-72
2023/03/29 08:55:44;;;;;;;14.25;8.95;;;;;;;;;;2057653;28;20027;-72
2023/03/29 08:57:15;;;;;;;16.70;9.25;;;;;;;;;;2047938;28;20023;-73
2023/03/29 08:58:37;;;;;;;27.43;11.20;;;;;;;;;;2043947;28;20636;-72
2023/03/29 09:00:00;;;;;;;18.13;8.95;;;;;;;;;;2056082;28;20402;-72
2023/03/29 09:01:22;;;;;;;26.48;11.05;;;;;;;;;;2045876;28;20039;-71
2023/03/29 09:02:44;;;;;;;23.50;10.45;;;;;;;;;;2046397;28;20495;-70
2023/03/29 09:04:04;;;;;;;22.10;10.73;;;;;;;;;;2047351;28;20055;-71
2023/03/29 09:05:27;;;;;;;18.52;9.52;;;;;;;;;;2060878;28;20445;-72
2023/03/29 09:06:49;;;;;;;15.55;8.25;;;;;;;;;;2052302;28;20031;-71
2023/03/29 09:08:16;;;;;;;13.60;8.67;;;;;;;;;;2057253;28;20537;-73
2023/03/29 09:14:24;;;;;;;15.25;8.48;;;;;;;;;;2022390;29;20061;-73
2023/03/29 09:15:51;;;;;;;16.48;9.18;;;;;;;;;;2040656;28;20024;-70
2023/03/29 09:17:29;;;;;;;21.25;10.52;;;;;;;;;;2064393;28;20031;-70
2023/03/29 09:18:56;;;;;;;15.75;9.73;;;;;;;;;;2055716;28;20058;-71
2023/03/29 09:22:32;;;;;;;13.10;8.93;;;;;;;;;;2041609;29;20594;-70
2023/03/29 09:24:16;;;;;;;17.05;9.82;;;;;;;;;;2062382;28;20049;-71
2023/03/29 09:26:01;;;;;;;14.98;8.45;;;;;;;;;;2055247;28;20027;-70
2023/03/29 09:27:33;;;;;;;16.50;9.45;;;;;;;;;;2057570;28;20031;-71
2023/03/29 09:29:00;;;;;;;;;;;;;;;;;;2057453;28;20023;-72
2023/03/29 09:30:34;;;;;;;18.80;8.70;;;;;;;;;;2062131;28;19918;-69
2023/03/29 09:31:55;;;;;;;14.75;9.50;;;;;;;;;;2058739;28;20457;-72
2023/03/29 09:33:23;;;;;;;17.67;9.68;;;;;;;;;;2055236;28;20023;-72
2023/03/29 09:34:46;;;;;;;17.83;9.77;;;;;;;;;;2055504;28;20062;-72
2023/03/29 09:36:16;;;;;;;26.85;11.73;;;;;;;;;;2051653;28;20125;-71
2023/03/29 09:37:40;;;;;;;20.83;9.88;;;;;;;;;;2055491;28;20031;-73
2023/03/29 09:39:02;;;;;;;18.60;9.48;;;;;;;;;;2057634;28;20019;-70
2023/03/29 09:40:34;;;;;;;31.02;14.10;;;;;;;;;;2049770;28;20085;-71
2023/03/29 09:43:41;;;;;;;29.02;12.10;;;;;;;;;;2044599;28;21389;-77
2023/03/29 09:45:07;;;;;;;31.55;11.48;;;;;;;;;;2035584;29;20083;-75
2023/03/29 09:47:04;;;;;;;29.75;12.02;;;;;;;;;;2053975;28;20058;-75
2023/03/29 09:48:29;;;;;;;27.73;13.52;;;;;;;;;;2061260;28;20089;-78
2023/03/29 09:49:54;;;;;;;37.78;15.60;;;;;;;;;;2052030;28;20023;-76
2023/03/29 09:51:21;;;;;;;26.02;11.98;;;;;;;;;;2054761;28;20023;-76
2023/03/29 09:52:42;;;;;;;29.30;11.15;;;;;;;;;;2052840;28;20133;-75
2023/03/29 09:54:08;;;;;;;26.90;13.20;;;;;;;;;;2053368;28;20043;-76
2023/03/29 09:55:31;;;;;;;18.95;10.55;;;;;;;;;;2054995;28;20041;-76
2023/03/29 09:56:52;;;;;;;17.25;10.18;;;;;;;;;;2054943;28;20035;-76
2023/03/29 09:59:32;;;;;;;15.02;9.32;;;;;;;;;;2054019;28;20078;-78
2023/03/29 10:01:04;;;;;;;18.00;10.18;;;;;;;;;;2048181;29;20514;-76
2023/03/29 10:02:47;;;;;;;18.70;10.30;;;;;;;;;;2047058;29;20035;-76
2023/03/29 10:04:18;;;;;;;18.58;10.20;;;;;;;;;;2037547;28;20043;-76
2023/03/29 10:05:39;;;;;;;14.65;9.18;;;;;;;;;;2055286;28;20023;-75
2023/03/29 10:07:03;;;;;;;17.23;9.40;;;;;;;;;;2053650;28;20042;-75
2023/03/29 10:08:26;;;;;;;25.15;10.70;;;;;;;;;;2058900;28;20038;-75
2023/03/29 10:09:49;;;;;;;31.15;12.38;;;;;;;;;;2049608;28;20097;-75
2023/03/29 10:11:18;;;;;;;17.95;10.38;;;;;;;;;;2058989;28;20026;-76
2023/03/29 10:12:40;;;;;;;16.98;9.98;;;;;;;;;;2059431;28;20399;-75
2023/03/29 10:14:21;;;;;;;16.02;9.75;;;;;;;;;;2048668;28;20540;-78
2023/03/29 10:15:42;;;;;;;16.58;10.13;;;;;;;;;;2057512;28;20039;-75
2023/03/29 10:17:05;;;;;;;14.70;9.38;;;;;;;;;;2051468;28;20086;-75
2023/03/29 10:18:26;;;;;;;17.55;9.10;;;;;;;;;;2056598;28;20037;-74
2023/03/29 10:19:48;;;;;;;21.95;9.75;;;;;;;;;;2064759;28;20039;-75
2023/03/29 10:21:23;;;;;;;;;;;;;;;;;;2054634;28;20074;-75
2023/03/29 10:23:04;;;;;;;18.20;10.55;;;;;;;;;;2055125;28;19945;-75
2023/03/29 10:24:26;;;;;;;16.20;10.27;;;;;;;;;;2053531;28;20121;-75
2023/03/29 10:25:53;;;;;;;22.83;11.52;;;;;;;;;;2063627;28;20034;-75
2023/03/29 10:29:23;;;;;;;32.70;13.07;;;;;;;;;;2051444;28;20036;-76
2023/03/29 10:30:47;;;;;;;25.58;11.70;;;;;;;;;;2051359;28;20086;-76
2023/03/29 10:32:24;;;;;;;22.95;10.55;;;;;;;;;;2049990;28;20043;-75
2023/03/29 10:33:49;;;;;;;30.55;13.40;;;;;;;;;;2059854;28;20042;-76
2023/03/29 10:35:17;;;;;;;22.45;11.25;;;;;;;;;;2052415;28;20026;-78
2023/03/29 10:36:40;;;;;;;18.95;10.95;;;;;;;;;;2057018;28;20034;-77
2023/03/29 10:38:10;;;;;;;22.13;10.95;;;;;;;;;;2054136;28;20046;-76
2023/03/29 10:39:32;;;;;;;15.10;9.07;;;;;;;;;;2060601;28;20114;-76
2023/03/29 10:40:54;;;;;;;15.27;9.38;;;;;;;;;;2058212;28;20030;-76
2023/03/29 10:42:16;;;;;;;25.73;11.65;;;;;;;;;;2053768;28;20100;-77
2023/03/29 10:43:41;;;;;;;23.02;12.98;;;;;;;;;;2049921;28;20039;-78
2023/03/29 10:45:02;;;;;;;25.08;12.30;;;;;;;;;;2053593;28;20101;-78
2023/03/29 10:46:28;;;;;;;26.83;11.88;;;;;;;;;;2051856;28;20465;-78
2023/03/29 10:47:49;;;;;;;23.55;11.38;;;;;;;;;;2051860;28;20031;-78
2023/03/29 10:49:16;;;;;;;26.67;12.18;;;;;;;;;;2051465;28;20039;-78
2023/03/29 10:50:37;;;;;;;26.17;11.30;;;;;;;;;;2061651;28;20440;-77
2023/03/29 10:51:58;;;;;;;18.17;10.65;;;;;;;;;;2055520;28;20082;-77
2023/03/29 10:53:25;;;;;;;22.63;11.75;;;;;;;;;;2053577;28;20047;-77
2023/03/29 10:54:46;;;;;;;26.98;12.18;;;;;;;;;;2050871;28;20565;-79
2023/03/29 10:56:13;;;;;;;21.38;10.65;;;;;;;;;;2058499;28;20038;-78
2023/03/29 10:57:55;;;;;;;22.88;11.30;;;;;;;;;;2052663;28;20026;-78
2023/03/29 10:59:22;;;;;;;16.73;9.82;;;;;;;;;;2054014;28;20031;-78
2023/03/29 11:00:43;;;;;;;23.88;11.38;;;;;;;;;;2053779;28;20031;-78
2023/03/29 11:02:12;;;;;;;30.25;13.73;;;;;;;;;;2047675;28;20141;-78
2023/03/29 11:03:49;;;;;;;23.60;11.27;;;;;;;;;;2053065;28;20101;-78
2023/03/29 11:05:30;;;;;;;22.17;11.13;;;;;;;;;;2053089;28;20434;-77
2023/03/29 11:07:12;;;;;;;17.58;10.60;;;;;;;;;;2060798;28;20073;-78
2023/03/29 11:08:45;;;;;;;23.83;10.93;;;;;;;;;;2054740;28;20030;-77
2023/03/29 11:10:25;;;;;;;17.45;9.25;;;;;;;;;;2051993;28;20441;-77
2023/03/29 11:11:46;;;;;;;16.60;9.68;;;;;;;;;;2055612;28;20402;-77
2023/03/29 11:13:10;;;;;;;18.50;10.05;;;;;;;;;;2053503;28;20454;-77
2023/03/29 11:14:34;;;;;;;14.23;9.52;;;;;;;;;;2056904;28;20073;-77
2023/03/29 11:16:09;;;;;;;21.80;11.23;;;;;;;;;;2061847;28;20082;-77
2023/03/29 11:17:53;;;;;;;19.95;10.70;;;;;;;;;;2052829;28;20429;-77
2023/03/29 11:19:14;;;;;;;20.05;11.18;;;;;;;;;;2054308;28;20066;-77
2023/03/29 11:20:43;;;;;;;22.13;10.63;;;;;;;;;;2058152;28;20030;-77
2023/03/29 11:22:12;;;;;;;23.27;11.55;;;;;;;;;;2057393;28;20101;-80
2023/03/29 11:23:40;;;;;;;21.95;10.43;;;;;;;;;;2051346;28;20034;-77
2023/03/29 11:25:08;;;;;;;18.83;9.55;;;;;;;;;;2053050;28;20458;-78
2023/03/29 11:26:29;;;;;;;29.83;12.35;;;;;;;;;;2058219;28;20093;-76
2023/03/29 11:27:59;;;;;;;28.67;12.98;;;;;;;;;;2057877;28;20027;-78
2023/03/29 11:29:29;;;;;;;19.00;9.43;;;;;;;;;;2057390;28;20096;-77
2023/03/29 11:30:58;;;;;;;21.77;10.30;;;;;;;;;;2061783;28;20034;-78
2023/03/29 11:32:38;;;;;;;23.65;11.88;;;;;;;;;;2058118;28;20148;-78
2023/03/29 11:34:20;;;;;;;29.33;12.70;;;;;;;;;;2053716;28;20560;-77
2023/03/29 11:35:47;;;;;;;26.07;11.67;;;;;;;;;;2059258;28;20034;-77
2023/03/29 11:37:08;;;;;;;22.42;11.55;;;;;;;;;;2056135;28;20464;-77
2023/03/29 11:38:41;;;;;;;22.33;11.23;;;;;;;;;;2058098;28;20513;-77
2023/03/29 11:40:14;;;;;;;21.35;11.93;;;;;;;;;;2058965;28;20034;-76
2023/03/29 11:41:41;;;;;;;25.38;11.82;;;;;;;;;;2057466;28;20030;-76
2023/03/29 11:43:04;;;;;;;24.25;11.70;;;;;;;;;;2057500;28;20484;-76
2023/03/29 11:44:27;;;;;;;18.90;10.40;;;;;;;;;;2061370;28;20555;-77
2023/03/29 11:45:54;;;;;;;22.98;10.27;;;;;;;;;;2062692;28;20030;-78
2023/03/29 11:47:15;;;;;;;14.15;9.43;;;;;;;;;;2054901;28;20051;-77
2023/03/29 11:48:39;;;;;;;16.45;8.98;;;;;;;;;;2058569;28;20031;-78
2023/03/29 11:50:15;;;;;;;17.55;9.75;;;;;;;;;;2058333;28;20034;-78
2023/03/29 11:51:43;;;;;;;16.60;8.75;;;;;;;;;;2062496;28;20034;-78
2023/03/29 11:53:07;;;;;;;15.55;10.45;;;;;;;;;;2062885;28;20026;-79
2023/03/29 11:54:39;;;;;;;27.50;12.60;;;;;;;;;;2061760;28;20650;-78
2023/03/29 11:56:09;;;;;;;14.82;9.07;;;;;;;;;;2062408;28;20742;-79
2023/03/29 11:57:30;;;;;;;15.07;9.38;;;;;;;;;;2062949;28;20038;-77
2023/03/29 11:58:54;;;;;;;21.50;10.75;;;;;;;;;;2061829;28;20552;-79
2023/03/29 12:00:19;;;;;;;32.00;14.43;;;;;;;;;;2056018;28;20042;-78
2023/03/29 12:02:00;;;;;;;23.15;10.77;;;;;;;;;;2057893;28;20034;-80
2023/03/29 12:03:27;;;;;;;23.88;10.55;;;;;;;;;;2056688;28;20038;-78
2023/03/29 12:04:51;;;;;;;27.65;10.98;;;;;;;;;;2053915;28;20046;-79
2023/03/29 12:06:20;;;;;;;23.80;10.82;;;;;;;;;;2056430;28;20047;-79
2023/03/29 12:07:44;;;;;;;25.15;11.38;;;;;;;;;;2058002;28;20112;-78
2023/03/29 12:09:09;;;;;;;20.27;10.40;;;;;;;;;;2052271;28;20139;-79
2023/03/29 12:10:37;;;;;;;28.30;11.40;;;;;;;;;;2047107;28;20147;-79
2023/03/29 12:12:04;;;;;;;28.05;11.50;;;;;;;;;;2055286;28;20042;-79
2023/03/29 12:13:41;;;;;;;23.05;11.55;;;;;;;;;;2058722;28;20721;-79
2023/03/29 12:15:19;;;;;;;24.02;11.20;;;;;;;;;;2055237;28;20082;-78
2023/03/29 12:16:51;;;;;;;21.20;10.75;;;;;;;;;;2057021;28;20034;-80
2023/03/29 12:18:15;;;;;;;23.75;9.55;;;;;;;;;;2056470;28;20505;-80
2023/03/29 12:19:47;;;;;;;29.08;11.75;;;;;;;;;;2054295;28;20094;-79
2023/03/29 12:21:11;;;;;;;27.95;11.13;;;;;;;;;;2058567;28;20092;-80
2023/03/29 12:22:32;;;;;;;27.55;11.20;;;;;;;;;;2057463;28;20085;-79
2023/03/29 12:23:53;;;;;;;22.08;9.23;;;;;;;;;;2058648;28;20056;-78
2023/03/29 12:25:17;;;;;;;18.70;9.98;;;;;;;;;;2059240;28;20046;-79
2023/03/29 12:26:53;;;;;;;25.92;11.13;;;;;;;;;;2046378;28;20763;-80
2023/03/29 12:28:32;;;;;;;22.23;10.68;;;;;;;;;;2055512;28;20023;-77
2023/03/29 12:29:58;;;;;;;25.50;10.13;;;;;;;;;;2050099;28;20179;-77
2023/03/29 12:31:19;;;;;;;23.27;10.25;;;;;;;;;;2054543;28;20120;-77
2023/03/29 12:32:59;;;;;;;26.77;11.00;;;;;;;;;;2058593;28;20030;-77
2023/03/29 12:34:40;;;;;;;19.65;10.80;;;;;;;;;;2059251;28;20026;-76
2023/03/29 12:36:07;;;;;;;23.48;10.52;;;;;;;;;;2050467;28;20426;-77
2023/03/29 12:37:47;;;;;;;18.15;9.70;;;;;;;;;;2057684;28;20038;-76
2023/03/29 12:39:15;;;;;;;19.75;10.13;;;;;;;;;;2052864;28;20027;-76
2023/03/29 12:40:46;;;;;;;19.45;10.45;;;;;;;;;;2057761;28;20039;-76
2023/03/29 12:42:14;;;;;;;14.50;9.13;;;;;;;;;;2061770;28;20041;-77
2023/03/29 12:43:42;;;;;;;19.30;10.35;;;;;;;;;;2061757;28;20433;-76
2023/03/29 12:45:13;;;;;;;26.50;10.95;;;;;;;;;;2048020;28;20035;-77
2023/03/29 12:46:34;;;;;;;21.17;9.90;;;;;;;;;;2052618;28;20645;-77
2023/03/29 12:47:56;;;;;;;19.35;9.60;;;;;;;;;;2055912;28;20951;-76
2023/03/29 12:49:34;;;;;;;21.13;10.45;;;;;;;;;;2059972;28;20031;-76